Map

Track Data

SID SEASON NUMBER BASIN SUBBASIN NAME ISO_TIME NATURE LAT LON WMO_WIND WMO_PRES WMO_AGENCY TRACK_TYPE DIST2LAND LANDFALL IFLAG USA_AGENCY USA_ATCF_ID USA_LAT USA_LON USA_RECORD USA_STATUS USA_WIND USA_PRES USA_SSHS USA_R34_NE USA_R34_SE USA_R34_SW USA_R34_NW USA_R50_NE USA_R50_SE USA_R50_SW USA_R50_NW USA_R64_NE USA_R64_SE USA_R64_SW USA_R64_NW USA_POCI USA_ROCI USA_RMW USA_EYE TOKYO_LAT TOKYO_LON TOKYO_GRADE TOKYO_WIND TOKYO_PRES TOKYO_R50_DIR TOKYO_R50_LONG TOKYO_R50_SHORT TOKYO_R30_DIR TOKYO_R30_LONG TOKYO_R30_SHORT TOKYO_LAND CMA_LAT CMA_LON CMA_CAT CMA_WIND CMA_PRES HKO_LAT HKO_LON HKO_CAT HKO_WIND HKO_PRES NEWDELHI_LAT NEWDELHI_LON NEWDELHI_GRADE NEWDELHI_WIND NEWDELHI_PRES NEWDELHI_CI NEWDELHI_DP NEWDELHI_POCI REUNION_LAT REUNION_LON REUNION_TYPE REUNION_WIND REUNION_PRES REUNION_TNUM REUNION_CI REUNION_RMW REUNION_R34_NE REUNION_R34_SE REUNION_R34_SW REUNION_R34_NW REUNION_R50_NE REUNION_R50_SE REUNION_R50_SW REUNION_R50_NW REUNION_R64_NE REUNION_R64_SE REUNION_R64_SW REUNION_R64_NW BOM_LAT BOM_LON BOM_TYPE BOM_WIND BOM_PRES BOM_TNUM BOM_CI BOM_RMW BOM_R34_NE BOM_R34_SE BOM_R34_SW BOM_R34_NW BOM_R50_NE BOM_R50_SE BOM_R50_SW BOM_R50_NW BOM_R64_NE BOM_R64_SE BOM_R64_SW BOM_R64_NW BOM_ROCI BOM_POCI BOM_EYE BOM_POS_METHOD BOM_PRES_METHOD NADI_LAT NADI_LON NADI_CAT NADI_WIND NADI_PRES WELLINGTON_LAT WELLINGTON_LON WELLINGTON_WIND WELLINGTON_PRES DS824_LAT DS824_LON DS824_STAGE DS824_WIND DS824_PRES TD9636_LAT TD9636_LON TD9636_STAGE TD9636_WIND TD9636_PRES TD9635_LAT TD9635_LON TD9635_WIND TD9635_PRES TD9635_ROCI NEUMANN_LAT NEUMANN_LON NEUMANN_CLASS NEUMANN_WIND NEUMANN_PRES MLC_LAT MLC_LON MLC_CLASS MLC_WIND MLC_PRES USA_GUST BOM_GUST BOM_GUST_PER REUNION_GUST REUNION_GUST_PER USA_SEAHGT USA_SEARAD_NE USA_SEARAD_SE USA_SEARAD_SW USA_SEARAD_NW STORM_SPEED STORM_DIR
1942063S20173 1942 13 SP MM NOT_NAMED 1942-03-03 23:00:00 NR -19.5000 173.000 spur-merge 473 473 __________O___ -1 -19.5000 173.000 7 15 231
1942063S20173 1942 13 SP MM NOT_NAMED 1942-03-04 00:00:00 NR -19.6561 172.799 spur-merge 500 500 __________P___ -1 -19.6561 172.799 7 15 231
1942063S20173 1942 13 SP MM NOT_NAMED 1942-03-04 03:00:00 NR -20.1212 172.186 spur-merge 575 508 __________P___ -1 -20.1212 172.186 7 15 232
1942063S20173 1942 13 SP MM NOT_NAMED 1942-03-04 06:00:00 NR -20.5770 171.551 spur-merge 508 424 __________P___ -1 -20.5770 171.551 7 15 234
1942063S20173 1942 13 SP MM NOT_NAMED 1942-03-04 09:00:00 NR -21.0176 170.878 spur-merge 424 365 __________P___ -1 -21.0176 170.878 7 16 236
1942063S20173 1942 13 SP MM NOT_NAMED 1942-03-04 11:00:00 NR -21.3000 170.400 spur-merge 365 342 __________O___ -1 -21.3000 170.400 7 16 238
1942063S20173 1942 13 SP MM NOT_NAMED 1942-03-04 12:00:00 NR -21.4370 170.151 spur-merge 342 251 __________P___ -1 -21.4370 170.151 7 16 242
1942063S20173 1942 13 SP MM NOT_NAMED 1942-03-04 15:00:00 NR -21.8222 169.364 spur-merge 251 165 __________P___ -1 -21.8222 169.364 7 17 245
1942063S20173 1942 13 SP MM NOT_NAMED 1942-03-04 18:00:00 NR -22.1495 168.519 spur-merge 154 72 __________P___ -1 -22.1495 168.519 7 17 250
1942063S20173 1942 13 SP MM NOT_NAMED 1942-03-04 21:00:00 NR -22.3945 167.623 spur-merge 62 23 __________P___ -1 -22.3945 167.623 7 17 256
1942063S20173 1942 13 SP MM NOT_NAMED 1942-03-04 23:00:00 NR -22.5000 167.000 spur-merge 15 11 __________O___ -1 -22.5000 167.000 7 17 261
1942063S20173 1942 13 SP MM NOT_NAMED 1942-03-05 00:00:00 NR -22.5234 166.695 spur-merge 11 11 __________P___ -1 -22.5234 166.695 7 17 269
1942063S20173 1942 13 SP MM NOT_NAMED 1942-03-05 03:00:00 NR -22.5141 165.752 spur-merge 54 54 __________P___ -1 -22.5141 165.752 7 18 273
1942063S20173 1942 13 SP MM NOT_NAMED 1942-03-05 06:00:00 NR -22.4328 164.764 spur-merge 103 103 __________P___ -1 -22.4328 164.764 7 19 275
1942063S20173 1942 13 SP MM NOT_NAMED 1942-03-05 09:00:00 NR -22.3394 163.725 spur-merge 159 159 __________P___ -1 -22.3394 163.725 7 20 275
1942063S20173 1942 13 SP MM NOT_NAMED 1942-03-05 11:00:00 NR -22.3000 163.000 spur-merge 220 220 __________O___ -1 -22.3000 163.000 7 21 272
1942063S20173 1942 13 SP MM NOT_NAMED 1942-03-05 12:00:00 NR -22.3040 162.577 spur-merge 250 250 __________P___ -1 -22.3040 162.577 7 24 269
1942063S20173 1942 13 SP MM NOT_NAMED 1942-03-05 15:00:00 NR -22.3406 161.243 spur-merge 366 366 __________P___ -1 -22.3406 161.243 7 25 268
1942063S20173 1942 13 SP EA NOT_NAMED 1942-03-05 18:00:00 NR -22.4103 159.929 spur-merge 485 485 __________P___ -1 -22.4103 159.929 7 23 266
1942063S20173 1942 13 SP EA NOT_NAMED 1942-03-05 21:00:00 NR -22.5125 158.788 spur-merge 591 555 __________P___ -1 -22.5125 158.788 7 19 263
1942063S20173 1942 13 SP EA NOT_NAMED 1942-03-05 23:00:00 NR -22.6000 158.200 998 bom spur-merge 555 546 ______O___O___ -1 -22.6000 158.200 998 -22.6000 158.200 7 14 258
1942063S20173 1942 13 SP EA NOT_NAMED 1942-03-06 00:00:00 TS -22.6532 158.063 spur-merge 541 518 ______P__OP___ -1 -22.6438 158.166 -22.7000 158.100 TC 35 998 -22.6462 158.003 7 6 235
1942063S20173 1942 13 SP EA NOT_NAMED 1942-03-06 03:00:00 TS -22.8274 157.846 spur-merge 509 490 ______P__PP___ -1 -22.7780 158.062 -22.9256 157.939 TC -22.8153 157.637 7 5 219
1942063S20173 1942 13 SP EA NOT_NAMED 1942-03-06 06:00:00 TS -23.0202 157.744 spur-merge 490 480 ______P__PP___ -1 -22.9223 157.950 -23.1510 157.778 TC -23.0199 157.512 7 4 204
1942063S20173 1942 13 SP EA NOT_NAMED 1942-03-06 09:00:00 TS -23.2354 157.648 spur-merge 471 461 ______P__PP___ -1 -23.0844 157.825 -23.3763 157.617 TC -23.2455 157.503 7 5 203
1942063S20173 1942 13 SP EA NOT_NAMED 1942-03-06 11:00:00 TS -23.3775 157.580 spur-merge 461 452 ______P__PO___ -1 -23.2061 157.732 -23.5264 157.509 TC -23.4000 157.500 7 5 207
1942063S20173 1942 13 SP EA NOT_NAMED 1942-03-06 12:00:00 TS -23.4442 157.531 spur-merge 452 434 ______P__PP___ -1 -23.2719 157.682 -23.6014 157.454 TC -23.4592 157.457 7 5 213
1942063S20173 1942 13 SP EA NOT_NAMED 1942-03-06 15:00:00 TS -23.6520 157.382 spur-merge 430 403 ______P__PP___ -1 -23.4925 157.514 -23.8263 157.292 TC -23.6373 157.339 7 5 213
1942063S20173 1942 13 SP EA NOT_NAMED 1942-03-06 18:00:00 TS -23.8810 157.219 spur-merge 403 377 ______P__PP___ -1 -23.7537 157.315 -24.0511 157.128 TC -23.8380 157.213 7 6 213
1942063S20173 1942 13 SP EA NOT_NAMED 1942-03-06 21:00:00 TS -24.1429 157.031 spur-merge 377 362 ______P__PP___ -1 -24.0632 157.080 -24.2757 156.964 TC -24.0899 157.047 7 7 213
1942063S20173 1942 13 SP EA NOT_NAMED 1942-03-06 23:00:00 TS -24.3417 156.885 996 bom spur-merge 362 349 ______O__PO___ -1 -24.3000 156.900 996 -24.4252 156.855 TC -24.3000 156.900 7 7 215
1942063S20173 1942 13 SP EA NOT_NAMED 1942-03-07 00:00:00 TS -24.4503 156.798 spur-merge 347 312 ______P__OP___ -1 -24.4283 156.802 -24.5000 156.800 TC 35 996 -24.4227 156.792 7 10 212
1942063S20173 1942 13 SP EA NOT_NAMED 1942-03-07 03:00:00 TS -24.8941 156.498 spur-merge 312 283 ______P__PP___ -1 -24.8494 156.486 -24.9884 156.594 TC -24.8447 156.414 7 11 211
1942063S20173 1942 13 SP EA NOT_NAMED 1942-03-07 06:00:00 TS -25.3735 156.179 spur-merge 285 266 ______P__PP___ -1 -25.3161 156.152 -25.4767 156.386 TC -25.3277 156.000 7 11 210
1942063S20173 1942 13 SP EA NOT_NAMED 1942-03-07 09:00:00 TS -25.8763 155.870 spur-merge 270 258 ______P__PP___ -1 -25.8176 155.821 -25.9648 156.176 TC -25.8464 155.612 7 12 208
1942063S20173 1942 13 SP EA NOT_NAMED 1942-03-07 11:00:00 TS -26.2186 155.683 spur-merge 259 248 ______P__PO___ -1 -26.1657 155.614 -26.2901 156.035 TC -26.2000 155.400 7 11 205
1942063S20173 1942 13 SP EA NOT_NAMED 1942-03-07 12:00:00 TS -26.3895 155.597 spur-merge 248 218 ______P__PP___ -1 -26.3427 155.517 -26.4527 155.964 TC -26.3729 155.309 7 11 202
1942063S20173 1942 13 SP EA NOT_NAMED 1942-03-07 15:00:00 TS -26.9087 155.367 spur-merge 218 180 ______P__PP___ -1 -26.8809 155.261 -26.9403 155.751 TC -26.9050 155.088 7 11 199
1942063S20173 1942 13 SP EA NOT_NAMED 1942-03-07 18:00:00 TS -27.4305 155.191 spur-merge 180 150 ______P__PP___ -1 -27.4217 155.078 -27.4274 155.536 TC -27.4425 154.960 7 11 195
1942063S20173 1942 13 SP EA NOT_NAMED 1942-03-07 21:00:00 TS -27.9480 155.063 spur-merge 150 137 ______P__PP___ -1 -27.9544 154.992 -27.9140 155.319 TC -27.9670 154.942 7 10 189
1942063S20173 1942 13 SP EA NOT_NAMED 1942-03-07 23:00:00 TS -28.2876 155.035 996 bom spur-merge 137 137 ______O__PO___ -1 -28.3000 155.000 996 4 -28.2381 155.173 TC -28.3000 155.000 7 10 181
1942063S20173 1942 13 SP EA NOT_NAMED 1942-03-08 00:00:00 TS -28.4560 155.038 spur-merge 137 137 ______P__OP___ -1 -28.4688 155.026 -28.4000 155.100 TC 35 996 -28.4572 155.034 7 10 167
1942063S20173 1942 13 SP EA NOT_NAMED 1942-03-08 03:00:00 NR -28.9337 155.207 spur-merge 155 155 ______P___P___ -1 -28.9594 155.191 TC -28.9080 155.223 7 10 156
1942063S20173 1942 13 SP EA NOT_NAMED 1942-03-08 06:00:00 NR -29.3804 155.504 spur-merge 192 192 ______P___P___ -1 -29.4283 155.474 TC -29.3325 155.535 7 11 145
1942063S20173 1942 13 SP EA NOT_NAMED 1942-03-08 09:00:00 NR -29.8078 155.908 spur-merge 244 244 ______P___P___ -1 -29.8781 155.857 TC -29.7375 155.960 7 11 138
1942063S20173 1942 13 SP EA NOT_NAMED 1942-03-08 11:00:00 NR -30.0843 156.231 spur-merge 279 279 ______P___O___ -1 -30.1687 156.161 TC -30.0000 156.300 7 12 134
1942063S20173 1942 13 SP EA NOT_NAMED 1942-03-08 12:00:00 NR -30.2205 156.406 spur-merge 299 299 ______P___P___ -1 -30.3114 156.326 TC -30.1296 156.486 7 13 130
1942063S20173 1942 13 SP EA NOT_NAMED 1942-03-08 15:00:00 NR -30.6218 156.982 spur-merge 363 363 ______P___P___ -1 -30.7306 156.863 TC -30.5130 157.100 7 13 127
1942063S20173 1942 13 SP EA NOT_NAMED 1942-03-08 18:00:00 NR -31.0135 157.616 spur-merge 428 428 ______P___P___ -1 -31.1383 157.451 TC -30.8886 157.781 7 14 125
1942063S20173 1942 13 SP EA NOT_NAMED 1942-03-08 21:00:00 NR -31.3974 158.289 spur-merge 494 494 ______P___P___ -1 -31.5373 158.074 TC -31.2574 158.504 7 14 123
1942063S20173 1942 13 SP EA NOT_NAMED 1942-03-08 23:00:00 NR -31.6500 158.750 998 bom spur-merge 543 ______O___O___ -1 -31.8000 158.500 998 TC -31.5000 159.000 7 14 123

Digital Typhoon Data and Search

About IBTrACS Database

This database is a web-friendly format of International Best Track Archive for Climate Stewardship (IBTrACS), a global best track data archive curated by NOAA dating back to 1842.

Updated: 2021-10-21